PWSweather.com
Personal Weather Stations
Station Observations
BSWETTER1
Bswetter.de, BraunschweigDE 38106

Bswetter.deBraunschweigDE 38106

Lat: 52.2751483, Lon: 10.5434341

Elevation: 295

Station Type: Davis Vantage II Pro Plus Aktiv

http://bswetter.de/

Latest ConditionsUpdated 5:00:08 AM GMT+01:01 Saturday, Feb 24, 2018
Currently Today's Max Today's Min Today's Average
Temperature 21.6°F-5.8°C 24.8°F-4.0°C 21.6°F-5.8°C 23.2°F-4.9°C
Dew Point 16.1°F-8.8°C 16.4°F-8.7°C 15.8°F-9.0°C 16.1°F-8.8°C
Winds Calm Calm 5.8 mph E9.3 kmh E - 3.0 mph 4.8 kmh
Wind Gusts 1.1 mph1.8 kmh 10.4 mph16.7 kmh - -
Humidity 79% 79% 70% 74%
Pressure 30.36 in1028.1 mb 30.36 in1028.1 mb 30.34 in1027.4 mb -
Hour Temp Dew Point Humidity Winds Wind Gusts Pressure Precip Precip Rate Daily Precip Total
05:00 AM 21.6°F-5.8°C 16.1°F-8.8°C 79% Calm Calm 1.1 mph1.8 kmh 30.36 in1028.1 mb - 0.00 in0.0 mm 0.00 in0.0 mm
04:55 AM 21.7°F-5.7°C 16.2°F-8.8°C 79% 1.1 mph ESE1.8 kmh ESE 3.5 mph5.6 kmh 30.36 in1028.1 mb - 0.00 in0.0 mm 0.00 in0.0 mm
04:50 AM 21.8°F-5.7°C 16.3°F-8.7°C 79% 1.1 mph ESE1.8 kmh ESE 3.5 mph5.6 kmh 30.36 in1028.1 mb - 0.00 in0.0 mm 0.00 in0.0 mm
04:45 AM 21.8°F-5.7°C 16.3°F-8.7°C 79% 1.1 mph ESE1.8 kmh ESE 3.5 mph5.6 kmh 30.36 in1028.1 mb - 0.00 in0.0 mm 0.00 in0.0 mm
04:40 AM 21.9°F-5.6°C 16.1°F-8.8°C 78% 1.1 mph E1.8 kmh E 3.5 mph5.6 kmh 30.36 in1028.1 mb - 0.00 in0.0 mm 0.00 in0.0 mm
04:35 AM 22.0°F-5.6°C 16.2°F-8.8°C 78% 1.1 mph E1.8 kmh E 3.5 mph5.6 kmh 30.36 in1028.1 mb - 0.00 in0.0 mm 0.00 in0.0 mm
04:30 AM 22.0°F-5.6°C 16.2°F-8.8°C 78% 1.1 mph E1.8 kmh E 3.5 mph5.6 kmh 30.36 in1028.1 mb - 0.00 in0.0 mm 0.00 in0.0 mm
04:25 AM 22.0°F-5.6°C 16.2°F-8.8°C 78% 1.1 mph E1.8 kmh E 3.5 mph5.6 kmh 30.36 in1028.1 mb - 0.00 in0.0 mm 0.00 in0.0 mm
04:20 AM 22.1°F-5.5°C 16.0°F-8.9°C 77% 1.1 mph E1.8 kmh E 3.5 mph5.6 kmh 30.35 in1027.8 mb - 0.00 in0.0 mm 0.00 in0.0 mm
04:15 AM 22.1°F-5.5°C 16.0°F-8.9°C 77% 1.1 mph E1.8 kmh E 3.5 mph5.6 kmh 30.35 in1027.8 mb - 0.00 in0.0 mm 0.00 in0.0 mm
04:10 AM 22.2°F-5.4°C 16.1°F-8.8°C 77% 2.3 mph E3.7 kmh E 5.8 mph9.3 kmh 30.35 in1027.8 mb - 0.00 in0.0 mm 0.00 in0.0 mm
04:00 AM 22.2°F-5.4°C 16.1°F-8.8°C 77% 4.6 mph E7.4 kmh E 8.1 mph13.0 kmh 30.35 in1027.8 mb - 0.00 in0.0 mm 0.00 in0.0 mm
03:55 AM 22.3°F-5.4°C 15.9°F-8.9°C 76% 4.6 mph E7.4 kmh E 5.8 mph9.3 kmh 30.35 in1027.8 mb - 0.00 in0.0 mm 0.00 in0.0 mm
03:50 AM 22.4°F-5.3°C 16.0°F-8.9°C 76% 4.6 mph E7.4 kmh E 6.9 mph11.1 kmh 30.34 in1027.4 mb - 0.00 in0.0 mm 0.00 in0.0 mm
03:45 AM 22.5°F-5.3°C 16.0°F-8.9°C 76% 2.3 mph E3.7 kmh E 6.9 mph11.1 kmh 30.34 in1027.4 mb - 0.00 in0.0 mm 0.00 in0.0 mm
03:40 AM 22.5°F-5.3°C 16.1°F-8.8°C 76% 1.1 mph E1.8 kmh E 5.8 mph9.3 kmh 30.34 in1027.4 mb - 0.00 in0.0 mm 0.00 in0.0 mm
03:35 AM 22.6°F-5.2°C 16.2°F-8.8°C 76% 2.3 mph E3.7 kmh E 3.5 mph5.6 kmh 30.34 in1027.4 mb - 0.00 in0.0 mm 0.00 in0.0 mm
03:30 AM 22.6°F-5.2°C 16.2°F-8.8°C 76% 2.3 mph E3.7 kmh E 3.5 mph5.6 kmh 30.35 in1027.8 mb - 0.00 in0.0 mm 0.00 in0.0 mm
03:25 AM 22.7°F-5.2°C 16.0°F-8.9°C 75% 1.1 mph E1.8 kmh E 3.5 mph5.6 kmh 30.35 in1027.8 mb - 0.00 in0.0 mm 0.00 in0.0 mm
03:20 AM 22.8°F-5.1°C 16.0°F-8.9°C 75% 2.3 mph E3.7 kmh E 4.6 mph7.4 kmh 30.35 in1027.8 mb - 0.00 in0.0 mm 0.00 in0.0 mm
03:15 AM 22.8°F-5.1°C 16.1°F-8.8°C 75% 3.5 mph E5.6 kmh E 4.6 mph7.4 kmh 30.35 in1027.8 mb - 0.00 in0.0 mm 0.00 in0.0 mm
03:10 AM 22.9°F-5.1°C 15.8°F-9.0°C 74% 3.5 mph E5.6 kmh E 8.1 mph13.0 kmh 30.35 in1027.8 mb - 0.00 in0.0 mm 0.00 in0.0 mm
03:00 AM 23.0°F-5.0°C 15.9°F-8.9°C 74% 3.5 mph E5.6 kmh E 8.1 mph13.0 kmh 30.35 in1027.8 mb - 0.00 in0.0 mm 0.00 in0.0 mm
02:55 AM 23.0°F-5.0°C 15.9°F-8.9°C 74% 2.3 mph E3.7 kmh E 4.6 mph7.4 kmh 30.35 in1027.8 mb - 0.00 in0.0 mm 0.00 in0.0 mm
02:50 AM 23.0°F-5.0°C 15.9°F-8.9°C 74% 2.3 mph E3.7 kmh E 3.5 mph5.6 kmh 30.35 in1027.8 mb - 0.00 in0.0 mm 0.00 in0.0 mm
02:45 AM 23.0°F-5.0°C 15.9°F-8.9°C 74% 2.3 mph E3.7 kmh E 3.5 mph5.6 kmh 30.35 in1027.8 mb - 0.00 in0.0 mm 0.00 in0.0 mm
02:40 AM 23.1°F-4.9°C 16.0°F-8.9°C 74% 3.5 mph E5.6 kmh E 6.9 mph11.1 kmh 30.35 in1027.8 mb - 0.00 in0.0 mm 0.00 in0.0 mm
02:35 AM 23.1°F-4.9°C 16.0°F-8.9°C 74% 2.3 mph E3.7 kmh E 4.6 mph7.4 kmh 30.35 in1027.8 mb - 0.00 in0.0 mm 0.00 in0.0 mm
02:30 AM 23.1°F-4.9°C 16.0°F-8.9°C 74% 3.5 mph E5.6 kmh E 6.9 mph11.1 kmh 30.35 in1027.8 mb - 0.00 in0.0 mm 0.00 in0.0 mm
02:25 AM 23.2°F-4.9°C 16.1°F-8.8°C 74% 4.6 mph E7.4 kmh E 8.1 mph13.0 kmh 30.35 in1027.8 mb - 0.00 in0.0 mm 0.00 in0.0 mm
02:20 AM 23.2°F-4.9°C 15.9°F-8.9°C 73% 4.6 mph E7.4 kmh E 5.8 mph9.3 kmh 30.35 in1027.8 mb - 0.00 in0.0 mm 0.00 in0.0 mm
02:15 AM 23.3°F-4.8°C 15.9°F-8.9°C 73% 3.5 mph E5.6 kmh E 6.9 mph11.1 kmh 30.35 in1027.8 mb - 0.00 in0.0 mm 0.00 in0.0 mm
02:10 AM 23.3°F-4.8°C 15.9°F-8.9°C 73% 5.8 mph E9.3 kmh E 10.4 mph16.7 kmh 30.35 in1027.8 mb - 0.00 in0.0 mm 0.00 in0.0 mm
02:00 AM 23.4°F-4.8°C 16.0°F-8.9°C 73% 3.5 mph E5.6 kmh E 3.5 mph5.6 kmh 30.35 in1027.8 mb - 0.00 in0.0 mm 0.00 in0.0 mm
01:55 AM 23.4°F-4.8°C 16.0°F-8.9°C 73% 4.6 mph E7.4 kmh E 10.4 mph16.7 kmh 30.35 in1027.8 mb - 0.00 in0.0 mm 0.00 in0.0 mm
01:50 AM 23.4°F-4.8°C 16.0°F-8.9°C 73% 4.6 mph E7.4 kmh E 4.6 mph7.4 kmh 30.35 in1027.8 mb - 0.00 in0.0 mm 0.00 in0.0 mm
01:45 AM 23.4°F-4.8°C 16.0°F-8.9°C 73% 4.6 mph E7.4 kmh E 8.1 mph13.0 kmh 30.35 in1027.8 mb - 0.00 in0.0 mm 0.00 in0.0 mm
01:40 AM 23.5°F-4.7°C 16.1°F-8.8°C 73% 4.6 mph E7.4 kmh E 6.9 mph11.1 kmh 30.35 in1027.8 mb - 0.00 in0.0 mm 0.00 in0.0 mm
01:35 AM 23.6°F-4.7°C 15.9°F-8.9°C 72% 4.6 mph E7.4 kmh E 4.6 mph7.4 kmh 30.35 in1027.8 mb - 0.00 in0.0 mm 0.00 in0.0 mm
01:30 AM 23.7°F-4.6°C 16.0°F-8.9°C 72% 2.3 mph E3.7 kmh E 8.1 mph13.0 kmh 30.35 in1027.8 mb - 0.00 in0.0 mm 0.00 in0.0 mm
01:25 AM 23.8°F-4.6°C 16.1°F-8.8°C 72% 4.6 mph E7.4 kmh E 8.1 mph13.0 kmh 30.35 in1027.8 mb - 0.00 in0.0 mm 0.00 in0.0 mm
01:20 AM 24.0°F-4.4°C 16.3°F-8.7°C 72% 4.6 mph E7.4 kmh E 9.2 mph14.8 kmh 30.35 in1027.8 mb - 0.00 in0.0 mm 0.00 in0.0 mm
01:15 AM 24.0°F-4.4°C 16.3°F-8.7°C 72% 4.6 mph E7.4 kmh E 8.1 mph13.0 kmh 30.35 in1027.8 mb - 0.00 in0.0 mm 0.00 in0.0 mm
01:10 AM 24.1°F-4.4°C 16.1°F-8.8°C 71% 4.6 mph ESE7.4 kmh ESE 6.9 mph11.1 kmh 30.35 in1027.8 mb - 0.00 in0.0 mm 0.00 in0.0 mm
01:00 AM 24.3°F-4.3°C 16.2°F-8.8°C 71% 4.6 mph E7.4 kmh E 8.1 mph13.0 kmh 30.35 in1027.8 mb - 0.00 in0.0 mm 0.00 in0.0 mm
12:55 AM 24.4°F-4.2°C 16.0°F-8.9°C 70% 3.5 mph E5.6 kmh E 4.6 mph7.4 kmh 30.35 in1027.8 mb - 0.00 in0.0 mm 0.00 in0.0 mm
12:50 AM 24.4°F-4.2°C 16.0°F-8.9°C 70% 3.5 mph ENE5.6 kmh ENE 4.6 mph7.4 kmh 30.35 in1027.8 mb - 0.00 in0.0 mm 0.00 in0.0 mm
12:45 AM 24.5°F-4.2°C 16.1°F-8.8°C 70% 3.5 mph NE5.6 kmh NE 6.9 mph11.1 kmh 30.35 in1027.8 mb - 0.00 in0.0 mm 0.00 in0.0 mm
12:40 AM 24.5°F-4.2°C 16.1°F-8.8°C 70% 1.1 mph E1.8 kmh E 3.5 mph5.6 kmh 30.35 in1027.8 mb - 0.00 in0.0 mm 0.00 in0.0 mm
12:35 AM 24.5°F-4.2°C 16.1°F-8.8°C 70% 2.3 mph E3.7 kmh E 5.8 mph9.3 kmh 30.35 in1027.8 mb - 0.00 in0.0 mm 0.00 in0.0 mm
12:30 AM 24.5°F-4.2°C 16.1°F-8.8°C 70% 3.5 mph E5.6 kmh E 6.9 mph11.1 kmh 30.35 in1027.8 mb - 0.00 in0.0 mm 0.00 in0.0 mm
12:25 AM 24.5°F-4.2°C 16.1°F-8.8°C 70% 4.6 mph E7.4 kmh E 6.9 mph11.1 kmh 30.34 in1027.4 mb - 0.00 in0.0 mm 0.00 in0.0 mm
12:20 AM 24.6°F-4.1°C 16.2°F-8.8°C 70% 3.5 mph E5.6 kmh E 6.9 mph11.1 kmh 30.34 in1027.4 mb - 0.00 in0.0 mm 0.00 in0.0 mm
12:15 AM 24.6°F-4.1°C 16.2°F-8.8°C 70% 3.5 mph E5.6 kmh E 6.9 mph11.1 kmh 30.34 in1027.4 mb - 0.00 in0.0 mm 0.00 in0.0 mm
12:10 AM 24.6°F-4.1°C 16.2°F-8.8°C 70% 2.3 mph E3.7 kmh E 4.6 mph7.4 kmh 30.34 in1027.4 mb - 0.00 in0.0 mm 0.00 in0.0 mm
12:00 AM 24.8°F-4.0°C 16.4°F-8.7°C 70% 1.1 mph E1.8 kmh E 3.5 mph5.6 kmh 30.34 in1027.4 mb - 0.00 in0.0 mm 0.00 in0.0 mm